KSLK/SLK METAR and TAF weather

Enter ICAO airport designator
Station Type Date Time Source
KSLK METAR 2018/12/12 11:51 UTC NOAA

KSLK 121151Z AUTO 00000KT 7SM OVC050 M07/M09 A2996 RMK AO2 SLP172 60000 T10721089 11056 21072 51020


Station Type Date Time Source
KSLK Decoded METAR 2018/12/12 11:51 UTC NOAA

ADIRONDACK REGIONAL AIRPORT, NY, United States (KSLK) 44-24N 074-12W 498M
Dec 12, 2018 - 06:51 AM EST / 2018.12.12 1151 UTC
Wind: Calm:0
Visibility: 7 mile(s):0
Sky conditions: overcast
Temperature: 19.0 F (-7.2 C)
Dew Point: 16.0 F (-8.9 C)
Relative Humidity: 87%
Pressure (altimeter): 29.96 in. Hg (1014 hPa)
Pressure tendency: 0.06 inches (2.0 hPa) higher than three hours ago
ob: KSLK 121151Z AUTO 00000KT 7SM OVC050 M07/M09 A2996 RMK AO2 SLP172 60000 T10721089 11056 21072 51020
cycle: 12

Station Type Date Time Source
KSLK TAF 2018/12/12 12:42 UTC NOAA

TAF KSLK 121139Z 1212/1312 VRB04KT 5SM BR SCT012 OVC050
TEMPO 1212/1215 BKN012
FM121500 32005KT 5SM BR BKN025
FM121600 33005KT P6SM BKN035
FM122200 VRB03KT P6SM SKC


Example: see airport list